Time;durP1;ratioP1;P1;durP2;ratioP2;P2;SDS_P1;SDS_P2;PMS_P1;PMS_P2;Temp;Humidity;BMP_temperature;BMP_pressure;BME280_temperature;BME280_humidity;BME280_pressure;Samples;Min_cycle;Max_cycle;Signal;HPM_P1;HPM_P2
2022/10/20 00:01:03;;;;;;;2.35;1.45;;;;;;;13.47;45.47;100427.69;4432510;32;32399;-65
2022/10/20 00:03:31;;;;;;;1.45;0.80;;;;;;;13.58;45.07;100422.38;4445743;32;33344;-66
2022/10/20 00:06:09;;;;;;;2.22;1.33;;;;;;;13.56;44.92;100412.69;4447037;32;34659;-65
2022/10/20 00:08:37;;;;;;;1.98;1.02;;;;;;;13.58;44.93;100417.00;4441189;32;33381;-65
2022/10/20 00:11:06;;;;;;;1.40;1.30;;;;;;;13.55;45.09;100417.22;4447632;32;34021;-64
2022/10/20 00:13:34;;;;;;;6.57;1.95;;;;;;;13.51;45.16;100416.59;4450707;32;34470;-63
2022/10/20 00:16:02;;;;;;;0.93;0.80;;;;;;;13.51;45.02;100421.97;4448775;32;33693;-64
2022/10/20 00:18:29;;;;;;;1.73;1.25;;;;;;;13.50;45.11;100431.00;4445758;32;34156;-63
2022/10/20 00:20:57;;;;;;;0.50;0.50;;;;;;;13.52;45.17;100428.22;4438077;32;33946;-65
2022/10/20 00:23:25;;;;;;;1.85;1.00;;;;;;;13.56;45.94;100435.06;4436074;32;31659;-63
2022/10/20 00:26:03;;;;;;;4.95;1.15;;;;;;;13.49;45.59;100436.50;4450580;32;34121;-63
2022/10/20 00:28:31;;;;;;;1.35;0.85;;;;;;;13.50;45.24;100433.69;4441581;32;34285;-64
2022/10/20 00:30:59;;;;;;;1.10;1.00;;;;;;;13.52;45.24;100438.97;4443911;32;35390;-63
2022/10/20 00:33:27;;;;;;;1.55;1.20;;;;;;;13.60;45.06;100441.91;4442143;32;33981;-64
2022/10/20 00:35:58;;;;;;;1.55;0.98;;;;;;;13.63;45.07;100439.00;4443044;32;34611;-63
2022/10/20 00:38:26;;;;;;;2.75;1.95;;;;;;;13.58;45.01;100437.63;4447516;32;35151;-63
2022/10/20 00:40:53;;;;;;;2.65;2.28;;;;;;;13.39;45.43;100427.44;4444559;32;34794;-63
2022/10/20 00:43:21;;;;;;;5.80;1.70;;;;;;;13.30;45.77;100444.25;4441189;32;33439;-65
2022/10/20 00:45:55;;;;;;;2.22;1.45;;;;;;;13.13;45.95;100440.97;4443814;32;33489;-66
2022/10/20 00:48:26;;;;;;;1.65;1.55;;;;;;;13.12;45.84;100439.22;4441007;32;35198;-65
2022/10/20 00:50:55;;;;;;;2.78;0.95;;;;;;;13.09;45.86;100435.91;4446568;32;33136;-65
2022/10/20 00:53:25;;;;;;;1.20;1.02;;;;;;;13.15;45.85;100439.00;4446569;32;33094;-63
2022/10/20 00:55:53;;;;;;;1.87;1.42;;;;;;;13.18;45.72;100444.16;4446153;32;34128;-63
2022/10/20 00:58:21;;;;;;;2.97;0.75;;;;;;;12.97;46.17;100451.09;4447752;32;34571;-64
2022/10/20 01:00:52;;;;;;;1.17;1.02;;;;;;;12.82;46.45;100450.41;4451747;32;33895;-67
2022/10/20 01:03:23;;;;;;;1.85;1.45;;;;;;;12.78;46.73;100454.31;4437507;32;32797;-64
2022/10/20 01:05:51;;;;;;;9.75;1.37;;;;;;;12.83;46.54;100455.66;4445253;32;33819;-64
2022/10/20 01:08:19;;;;;;;1.17;1.05;;;;;;;12.84;46.95;100451.19;4448751;32;33813;-66
2022/10/20 01:11:13;;;;;;;2.62;1.98;;;;;;;12.87;46.49;100442.00;4446056;32;34679;-64
2022/10/20 01:14:12;;;;;;;2.33;1.50;;;;;;;12.84;46.52;100453.87;4442759;32;34573;-64
2022/10/20 01:17:11;;;;;;;0.73;0.73;;;;;;;12.76;46.67;100438.28;4446973;32;33592;-65
2022/10/20 01:20:03;;;;;;;2.05;1.33;;;;;;;12.71;46.79;100444.94;4446391;32;35454;-64
2022/10/20 01:23:08;;;;;;;3.75;1.10;;;;;;;12.72;46.72;100442.16;4449489;32;34156;-65
2022/10/20 01:25:54;;;;;;;2.00;1.30;;;;;;;12.74;46.72;100437.53;4452046;32;33169;-63
2022/10/20 01:28:40;;;;;;;2.20;1.15;;;;;;;12.61;47.02;100439.38;4452640;32;33938;-64
2022/10/20 01:31:41;;;;;;;1.20;1.10;;;;;;;12.37;47.75;100438.47;4438374;32;32577;-63
2022/10/20 01:34:49;;;;;;;1.35;1.17;;;;;;;12.66;47.02;100445.28;4434407;32;34258;-64
2022/10/20 01:37:28;;;;;;;1.60;1.27;;;;;;;12.62;47.15;100443.81;4438057;32;33487;-64
2022/10/20 01:40:44;;;;;;;1.92;1.35;;;;;;;12.56;47.49;100449.63;4437384;32;34012;-63
2022/10/20 01:43:13;;;;;;;0.95;0.93;;;;;;;12.62;47.40;100457.25;4443318;32;34013;-65
2022/10/20 01:45:43;;;;;;;2.08;1.83;;;;;;;12.69;47.33;100454.97;4444365;32;33912;-64
2022/10/20 01:48:12;;;;;;;1.42;1.08;;;;;;;12.68;47.37;100455.91;4446041;32;33892;-63
2022/10/20 01:50:40;;;;;;;5.15;1.48;;;;;;;12.77;46.92;100455.25;4451982;32;33541;-63
2022/10/20 01:53:08;;;;;;;1.20;1.00;;;;;;;12.75;46.82;100452.69;4435534;32;34092;-65
2022/10/20 01:55:36;;;;;;;1.20;0.98;;;;;;;12.65;46.93;100459.69;4440105;32;33704;-64
2022/10/20 01:58:42;;;;;;;0.85;0.85;;;;;;;12.63;46.68;100445.50;4451115;32;33437;-63
2022/10/20 02:01:28;;;;;;;1.48;1.23;;;;;;;12.58;46.75;100458.41;4447603;32;34998;-62
2022/10/20 02:03:58;;;;;;;0.70;0.70;;;;;;;12.56;46.79;100457.69;4451298;32;33967;-62
2022/10/20 02:06:44;;;;;;;1.27;1.15;;;;;;;12.36;47.30;100453.75;4436348;32;34865;-62
2022/10/20 02:09:16;;;;;;;;;;;;;;;12.41;47.32;100450.72;4442366;32;34784;-63
2022/10/20 02:11:49;;;;;;;2.75;1.52;;;;;;;12.46;47.05;100452.09;4438277;32;34360;-66
2022/10/20 02:14:19;;;;;;;1.35;0.95;;;;;;;12.34;47.30;100451.13;4439491;32;33967;-63
2022/10/20 02:16:58;;;;;;;1.15;1.08;;;;;;;12.06;48.05;100454.03;4438221;32;33522;-64
2022/10/20 02:19:31;;;;;;;1.90;1.45;;;;;;;12.15;47.61;100450.72;4429154;32;34324;-64
2022/10/20 02:21:58;;;;;;;0.93;0.93;;;;;;;11.87;48.53;100449.94;4449374;32;34076;-63
2022/10/20 02:24:30;;;;;;;3.03;1.37;;;;;;;11.79;48.67;100454.13;4450759;32;33985;-63
2022/10/20 02:27:00;;;;;;;1.37;1.10;;;;;;;11.80;48.61;100461.19;4429306;32;33598;-63
2022/10/20 02:29:31;;;;;;;0.95;0.90;;;;;;;11.80;48.61;100453.13;4436722;32;34563;-64
2022/10/20 02:31:59;;;;;;;2.28;1.40;;;;;;;11.65;49.23;100460.41;4423307;32;33274;-64
2022/10/20 02:34:26;;;;;;;3.17;1.85;;;;;;;11.70;49.01;100469.00;4430161;32;33951;-64
2022/10/20 02:36:57;;;;;;;1.70;1.30;;;;;;;11.61;49.38;100458.88;4447292;32;33501;-64
2022/10/20 02:39:25;;;;;;;2.37;1.48;;;;;;;11.54;49.84;100465.62;4444132;32;33464;-62
2022/10/20 02:41:53;;;;;;;2.00;1.67;;;;;;;11.71;49.18;100462.66;4444087;32;33481;-63
2022/10/20 02:44:21;;;;;;;1.95;1.42;;;;;;;11.79;49.10;100456.78;4445274;32;33969;-64
2022/10/20 02:46:49;;;;;;;1.90;1.48;;;;;;;11.73;49.47;100476.84;4447066;32;32271;-64
2022/10/20 02:49:16;;;;;;;0.70;0.70;;;;;;;11.68;49.18;100456.66;4447084;32;33108;-63
2022/10/20 02:51:44;;;;;;;0.85;0.85;;;;;;;11.79;49.35;100467.53;4445892;32;34051;-64
2022/10/20 02:54:11;;;;;;;1.40;1.30;;;;;;;11.96;48.84;100466.38;4438220;32;34019;-62
2022/10/20 02:56:39;;;;;;;0.82;0.77;;;;;;;12.02;48.69;100471.34;4430844;32;32442;-64
2022/10/20 02:59:11;;;;;;;2.60;1.48;;;;;;;12.03;48.29;100475.72;4445266;32;33330;-63
2022/10/20 03:01:39;;;;;;;1.10;1.00;;;;;;;11.98;48.34;100477.87;4440171;32;34768;-64
2022/10/20 03:04:07;;;;;;;0.60;0.60;;;;;;;11.75;48.83;100477.59;4434495;32;32864;-62
2022/10/20 03:06:35;;;;;;;2.53;1.02;;;;;;;11.72;48.95;100477.81;4446828;32;33627;-65
2022/10/20 03:09:02;;;;;;;1.48;1.23;;;;;;;11.79;48.52;100476.41;4447347;32;33207;-64
2022/10/20 03:11:30;;;;;;;1.05;0.77;;;;;;;11.83;48.36;100479.75;4441135;32;35108;-63
2022/10/20 03:13:58;;;;;;;2.08;1.87;;;;;;;11.80;48.33;100477.28;4444972;32;33869;-63
2022/10/20 03:16:25;;;;;;;0.75;0.75;;;;;;;11.76;48.67;100482.00;4449108;32;33688;-62
2022/10/20 03:18:53;;;;;;;1.48;1.05;;;;;;;11.78;48.61;100479.19;4450507;32;33690;-62
2022/10/20 03:21:23;;;;;;;0.77;0.77;;;;;;;11.89;48.32;100476.69;4448203;32;32880;-63
2022/10/20 03:23:51;;;;;;;1.15;1.05;;;;;;;11.93;47.71;100482.69;4439930;32;32985;-64
2022/10/20 03:26:18;;;;;;;1.65;1.10;;;;;;;11.93;48.01;100483.53;4446683;32;33855;-62
2022/10/20 03:28:46;;;;;;;1.83;1.62;;;;;;;11.89;48.02;100487.41;4450154;32;34483;-65
2022/10/20 03:31:13;;;;;;;1.98;1.45;;;;;;;11.93;47.99;100480.00;4444393;32;32738;-63
2022/10/20 03:33:41;;;;;;;3.50;2.35;;;;;;;11.92;48.42;100486.34;4448163;32;34018;-63
2022/10/20 03:36:08;;;;;;;2.17;1.55;;;;;;;12.03;47.36;100483.78;4450912;32;33643;-65
2022/10/20 03:38:36;;;;;;;0.82;0.82;;;;;;;11.85;48.41;100494.81;4451175;32;34923;-65
2022/10/20 03:41:04;;;;;;;0.98;0.85;;;;;;;11.94;47.68;100487.09;4445217;32;34513;-63
2022/10/20 03:43:31;;;;;;;1.55;1.27;;;;;;;11.88;47.75;100489.25;4435676;32;34320;-63
2022/10/20 03:46:07;;;;;;;1.80;1.02;;;;;;;11.80;47.82;100488.84;4443325;32;33932;-62
2022/10/20 03:48:36;;;;;;;5.32;1.40;;;;;;;11.87;47.74;100487.50;4450786;32;33601;-63
2022/10/20 03:51:03;;;;;;;1.48;0.98;;;;;;;11.86;47.92;100485.78;4444645;32;33826;-63
2022/10/20 03:53:31;;;;;;;1.65;1.40;;;;;;;11.81;47.73;100495.06;4440415;32;35397;-64
2022/10/20 03:56:04;;;;;;;2.50;1.40;;;;;;;11.86;48.20;100487.63;4437691;32;33707;-63
2022/10/20 03:58:32;;;;;;;2.90;1.60;;;;;;;11.83;48.19;100496.69;4450342;32;34568;-64
2022/10/20 04:01:00;;;;;;;2.35;1.95;;;;;;;11.88;48.11;100491.94;4446245;32;33843;-62
2022/10/20 04:03:27;;;;;;;2.42;1.83;;;;;;;11.92;47.67;100487.19;4447711;32;33971;-64
2022/10/20 04:05:55;;;;;;;2.42;1.75;;;;;;;11.92;47.36;100489.03;4444867;32;34078;-63
2022/10/20 04:08:22;;;;;;;4.55;2.20;;;;;;;11.78;47.49;100490.81;4450610;32;33428;-64
2022/10/20 04:10:50;;;;;;;1.85;1.50;;;;;;;11.70;47.51;100495.81;4444758;32;33760;-63
2022/10/20 04:13:17;;;;;;;4.30;1.60;;;;;;;11.68;47.58;100496.88;4446655;32;33750;-62
2022/10/20 04:15:45;;;;;;;2.92;1.98;;;;;;;11.66;47.52;100499.66;4442179;32;32744;-63
2022/10/20 04:18:12;;;;;;;4.05;1.50;;;;;;;11.48;47.97;100490.19;4436236;32;34558;-63
2022/10/20 04:20:40;;;;;;;1.75;1.23;;;;;;;11.42;48.56;100494.97;4442384;32;33866;-64
2022/10/20 04:23:11;;;;;;;8.93;1.77;;;;;;;11.54;47.69;100492.44;4444820;32;34086;-61
2022/10/20 04:25:44;;;;;;;3.80;1.90;;;;;;;11.50;47.79;100494.47;4447406;32;33914;-63
2022/10/20 04:28:13;;;;;;;2.95;2.10;;;;;;;11.43;48.07;100491.34;4445774;32;31971;-62
2022/10/20 04:30:41;;;;;;;1.60;1.30;;;;;;;11.50;47.78;100483.75;4447879;32;32374;-62
2022/10/20 04:33:09;;;;;;;3.42;2.15;;;;;;;11.49;47.53;100483.84;4445068;32;33568;-62
2022/10/20 04:35:37;;;;;;;2.40;1.25;;;;;;;11.47;48.02;100488.47;4445768;32;34015;-62
2022/10/20 04:38:04;;;;;;;1.45;1.35;;;;;;;11.33;48.77;100495.59;4443128;32;32134;-62
2022/10/20 04:40:32;;;;;;;4.25;1.75;;;;;;;11.33;48.78;100489.34;4448608;32;33634;-65
2022/10/20 04:43:00;;;;;;;1.12;1.05;;;;;;;11.30;48.44;100490.44;4448921;32;35169;-62
2022/10/20 04:45:27;;;;;;;0.93;0.93;;;;;;;11.32;48.98;100487.66;4444761;32;34908;-64
2022/10/20 04:47:55;;;;;;;1.08;0.98;;;;;;;11.47;48.36;100489.31;4448915;32;31907;-63
2022/10/20 04:50:22;;;;;;;1.65;1.48;;;;;;;11.53;48.12;100496.97;4447015;32;34634;-63
2022/10/20 04:53:06;;;;;;;1.20;1.10;;;;;;;11.36;48.63;100494.50;4448917;32;34066;-63
2022/10/20 04:55:34;;;;;;;0.80;0.77;;;;;;;11.54;48.45;100490.63;4447179;32;34693;-62
2022/10/20 04:58:02;;;;;;;1.37;1.05;;;;;;;11.64;47.12;100493.53;4447141;32;32305;-63
2022/10/20 05:00:30;;;;;;;1.27;1.15;;;;;;;11.56;47.52;100496.75;4443547;32;33504;-64
2022/10/20 05:02:57;;;;;;;1.05;0.95;;;;;;;11.56;47.72;100495.91;4448400;32;34166;-63
2022/10/20 05:05:25;;;;;;;0.77;0.77;;;;;;;11.53;47.21;100496.97;4445389;32;33922;-62
2022/10/20 05:07:52;;;;;;;2.37;1.55;;;;;;;11.47;47.49;100496.50;4447269;32;33346;-65
2022/10/20 05:10:20;;;;;;;1.62;1.42;;;;;;;11.42;48.43;100503.00;4448996;32;33772;-64
2022/10/20 05:12:47;;;;;;;1.35;1.25;;;;;;;11.32;48.71;100512.63;4444285;32;34418;-62
2022/10/20 05:15:15;;;;;;;2.05;1.60;;;;;;;11.36;48.60;100515.97;4440841;32;33700;-64
2022/10/20 05:17:42;;;;;;;1.65;1.37;;;;;;;11.36;48.15;100511.47;4442994;32;34277;-64
2022/10/20 05:20:10;;;;;;;1.65;1.30;;;;;;;11.34;48.33;100518.75;4445495;32;35085;-63
2022/10/20 05:22:37;;;;;;;0.77;0.77;;;;;;;11.34;48.40;100517.91;4440886;32;34071;-62
2022/10/20 05:25:06;;;;;;;1.30;1.15;;;;;;;11.45;47.78;100525.22;4449700;32;34618;-63
2022/10/20 05:27:53;;;;;;;0.93;0.85;;;;;;;11.39;47.73;100531.84;4447378;32;33260;-63
2022/10/20 05:30:21;;;;;;;2.50;1.20;;;;;;;11.30;47.88;100529.75;4444979;32;32488;-63
2022/10/20 05:32:48;;;;;;;1.20;1.10;;;;;;;11.34;47.59;100531.31;4446013;32;34783;-62
2022/10/20 05:35:16;;;;;;;3.53;1.33;;;;;;;11.32;47.69;100539.44;4449023;32;32781;-64
2022/10/20 05:37:43;;;;;;;2.05;1.60;;;;;;;11.28;48.25;100545.94;4445902;32;31707;-63
2022/10/20 05:40:11;;;;;;;2.28;1.15;;;;;;;11.30;48.29;100548.53;4446445;32;33954;-63
2022/10/20 05:42:39;;;;;;;0.80;0.73;;;;;;;11.18;49.20;100552.88;4445553;32;34972;-62
2022/10/20 05:45:07;;;;;;;1.65;0.95;;;;;;;11.04;49.57;100558.25;4447421;32;32928;-64
2022/10/20 05:47:35;;;;;;;1.08;0.88;;;;;;;11.39;48.65;100562.19;4443175;32;34421;-64
2022/10/20 05:50:03;;;;;;;2.75;1.20;;;;;;;11.43;48.68;100569.09;4449598;32;35515;-64
2022/10/20 05:52:30;;;;;;;3.08;1.67;;;;;;;11.48;48.39;100568.78;4440123;32;32408;-65
2022/10/20 05:54:58;;;;;;;2.83;2.10;;;;;;;11.55;47.94;100566.53;4438563;32;34670;-65
2022/10/20 05:57:26;;;;;;;0.82;0.82;;;;;;;11.37;48.94;100569.47;4439666;32;34568;-64
2022/10/20 05:59:53;;;;;;;1.62;1.25;;;;;;;11.48;48.96;100571.44;4448110;32;33524;-64
2022/10/20 06:02:21;;;;;;;1.12;1.02;;;;;;;11.61;48.27;100575.03;4436976;32;33963;-65
2022/10/20 06:04:48;;;;;;;2.55;1.55;;;;;;;11.60;47.94;100580.53;4447603;32;32475;-65
2022/10/20 06:07:16;;;;;;;3.83;1.42;;;;;;;11.60;48.57;100585.87;4450038;32;31868;-65
2022/10/20 06:09:43;;;;;;;3.25;2.58;;;;;;;11.66;47.91;100580.13;4446303;32;33749;-67
2022/10/20 06:12:11;;;;;;;4.10;1.87;;;;;;;11.37;48.85;100582.03;4432819;32;33754;-64
2022/10/20 06:14:38;;;;;;;5.43;2.00;;;;;;;11.59;48.25;100584.19;4449684;32;33791;-65
2022/10/20 06:17:06;;;;;;;2.58;2.12;;;;;;;11.67;49.47;100589.87;4442866;32;33491;-65
2022/10/20 06:19:34;;;;;;;2.45;1.30;;;;;;;11.81;48.74;100603.25;4446561;32;33751;-66
2022/10/20 06:22:01;;;;;;;5.93;3.33;;;;;;;11.85;49.16;100594.06;4448006;32;35011;-64
2022/10/20 06:24:33;;;;;;;5.60;2.15;;;;;;;11.86;49.97;100605.66;4448924;32;33811;-65
2022/10/20 06:27:01;;;;;;;2.87;2.25;;;;;;;12.18;48.36;100600.81;4443872;32;33313;-65
2022/10/20 06:29:28;;;;;;;5.70;2.40;;;;;;;12.11;49.34;100605.72;4444949;32;33562;-66
2022/10/20 06:31:56;;;;;;;18.33;1.85;;;;;;;12.37;48.72;100613.84;4443222;32;34945;-65
2022/10/20 06:34:24;;;;;;;1.48;1.35;;;;;;;12.58;48.37;100615.03;4442623;32;33967;-65
2022/10/20 06:36:52;;;;;;;2.08;1.87;;;;;;;12.58;48.59;100614.16;4446322;32;33599;-63
2022/10/20 06:39:21;;;;;;;2.90;2.08;;;;;;;12.58;48.71;100616.84;4430349;32;33449;-65
2022/10/20 06:41:51;;;;;;;4.75;2.75;;;;;;;12.66;48.56;100616.34;4445668;32;34011;-65
2022/10/20 06:44:21;;;;;;;2.87;2.10;;;;;;;12.93;47.85;100613.53;4442856;32;32752;-65
2022/10/20 06:46:51;;;;;;;5.97;2.87;;;;;;;13.04;47.60;100610.94;4447564;32;33406;-64
2022/10/20 06:49:19;;;;;;;2.42;1.92;;;;;;;13.05;47.86;100615.34;4440438;32;35879;-64
2022/10/20 06:51:47;;;;;;;5.78;3.17;;;;;;;13.11;47.92;100617.59;4447702;32;33865;-65
2022/10/20 06:54:14;;;;;;;11.68;1.90;;;;;;;13.28;48.04;100627.16;4445606;32;33935;-64
2022/10/20 06:56:42;;;;;;;2.67;2.28;;;;;;;13.24;48.76;100626.53;4444905;32;32956;-65
2022/10/20 06:59:09;;;;;;;8.10;4.30;;;;;;;13.76;47.65;100616.47;4433080;32;35206;-65
2022/10/20 07:01:38;;;;;;;7.28;2.87;;;;;;;13.47;48.34;100624.84;4443343;32;34072;-64
2022/10/20 07:04:09;;;;;;;4.75;2.87;;;;;;;13.84;47.19;100624.84;4428788;32;33350;-65
2022/10/20 07:06:38;;;;;;;4.10;2.92;;;;;;;13.22;49.13;100628.41;4443989;32;33004;-65
2022/10/20 07:09:07;;;;;;;3.75;2.40;;;;;;;13.77;48.25;100626.25;4445989;32;35371;-64
2022/10/20 07:11:35;;;;;;;4.28;2.30;;;;;;;13.51;48.34;100630.88;4444869;32;34096;-64
2022/10/20 07:14:03;;;;;;;9.75;3.72;;;;;;;13.21;49.02;100639.31;4444521;32;33918;-65
2022/10/20 07:16:32;;;;;;;4.03;2.12;;;;;;;13.63;48.12;100639.88;4446183;32;34192;-65
2022/10/20 07:19:01;;;;;;;2.80;1.65;;;;;;;13.30;48.67;100632.44;4445907;32;33830;-64
2022/10/20 07:21:30;;;;;;;3.03;2.33;;;;;;;13.33;48.89;100634.91;4447225;32;34011;-65
2022/10/20 07:24:05;;;;;;;1.20;0.93;;;;;;;13.58;48.33;100637.53;4445995;32;35205;-66
2022/10/20 07:26:35;;;;;;;16.55;2.10;;;;;;;13.28;49.26;100640.59;4430680;32;32876;-64
2022/10/20 07:29:02;;;;;;;4.07;2.80;;;;;;;13.67;48.04;100644.91;4446740;32;33898;-64
2022/10/20 07:31:32;;;;;;;4.37;2.50;;;;;;;13.64;47.98;100649.66;4447190;32;33876;-65
2022/10/20 07:34:00;;;;;;;2.17;1.55;;;;;;;13.70;48.33;100650.06;4446631;32;33175;-63
2022/10/20 07:36:48;;;;;;;4.22;1.87;;;;;;;13.81;47.79;100649.28;4431565;32;32950;-63
2022/10/20 07:39:15;;;;;;;3.42;2.25;;;;;;;13.87;47.85;100648.00;4440617;32;33587;-63
2022/10/20 07:41:46;;;;;;;1.95;1.52;;;;;;;14.13;47.22;100656.81;4448713;32;34192;-63
2022/10/20 07:44:13;;;;;;;7.85;2.60;;;;;;;14.10;47.17;100655.19;4446895;32;34192;-63
2022/10/20 07:46:41;;;;;;;3.05;1.58;;;;;;;13.29;49.77;100650.41;4445464;32;33348;-63
2022/10/20 07:49:09;;;;;;;4.03;2.33;;;;;;;13.75;48.46;100655.97;4444216;32;33847;-64
2022/10/20 07:51:57;;;;;;;11.98;1.65;;;;;;;14.08;47.43;100667.91;4444113;32;32549;-62
2022/10/20 07:54:24;;;;;;;4.78;3.05;;;;;;;12.92;49.53;100662.88;4446564;32;34560;-62
2022/10/20 07:56:52;;;;;;;3.47;2.45;;;;;;;13.36;49.32;100654.37;4447397;32;33410;-63
2022/10/20 07:59:19;;;;;;;2.45;1.50;;;;;;;13.55;49.11;100653.91;4442380;32;33863;-63
2022/10/20 08:01:47;;;;;;;13.35;2.70;;;;;;;13.05;49.39;100655.66;4449913;32;33887;-63
2022/10/20 08:04:15;;;;;;;2.92;1.80;;;;;;;13.43;48.77;100654.78;4450351;32;33989;-64
2022/10/20 08:06:42;;;;;;;1.45;1.15;;;;;;;13.85;47.59;100658.00;4449930;32;32323;-64
2022/10/20 08:09:10;;;;;;;2.30;1.62;;;;;;;13.98;46.96;100656.97;4448485;32;32740;-63
2022/10/20 08:11:37;;;;;;;3.15;2.00;;;;;;;13.75;48.00;100664.06;4452281;32;35733;-63
2022/10/20 08:14:05;;;;;;;4.60;2.47;;;;;;;13.97;47.20;100651.72;4448927;32;32830;-62
2022/10/20 08:16:33;;;;;;;2.83;1.77;;;;;;;13.98;46.63;100659.66;4451227;32;32557;-63
2022/10/20 08:19:03;;;;;;;3.20;2.25;;;;;;;14.22;47.40;100666.84;4442156;32;33064;-64
2022/10/20 08:21:44;;;;;;;6.68;2.25;;;;;;;13.58;47.75;100663.56;4448942;32;34484;-64
2022/10/20 08:24:12;;;;;;;3.83;2.22;;;;;;;13.86;47.42;100673.16;4450312;32;33783;-63
2022/10/20 08:26:40;;;;;;;3.10;2.05;;;;;;;14.43;46.78;100669.78;4449089;32;34438;-63
2022/10/20 08:29:07;;;;;;;2.05;1.50;;;;;;;14.61;45.27;100668.41;4450868;32;32507;-64
2022/10/20 08:31:35;;;;;;;7.18;2.97;;;;;;;14.16;46.63;100665.50;4450193;32;35222;-62
2022/10/20 08:34:03;;;;;;;3.70;2.17;;;;;;;14.25;46.27;100673.84;4452403;32;33660;-63
2022/10/20 08:36:30;;;;;;;3.40;1.27;;;;;;;14.37;45.59;100675.62;4444267;32;33506;-63
2022/10/20 08:38:58;;;;;;;3.17;2.35;;;;;;;14.26;46.21;100671.06;4448984;32;32474;-63
2022/10/20 08:41:35;;;;;;;3.62;1.70;;;;;;;13.82;47.14;100672.53;4447983;32;34219;-62
2022/10/20 08:44:26;;;;;;;2.25;1.33;;;;;;;14.57;45.28;100672.28;4448640;32;32292;-62
2022/10/20 08:46:53;;;;;;;4.35;1.75;;;;;;;14.30;46.66;100682.44;4429911;32;32158;-61
2022/10/20 08:49:26;;;;;;;7.37;2.47;;;;;;;14.19;46.45;100681.44;4447812;32;34055;-62
2022/10/20 08:51:54;;;;;;;7.03;1.95;;;;;;;14.41;46.29;100679.78;4450617;32;35993;-61
2022/10/20 08:54:22;;;;;;;3.22;2.33;;;;;;;14.63;46.69;100673.66;4450400;32;33687;-60
2022/10/20 08:56:49;;;;;;;2.72;1.77;;;;;;;14.80;47.08;100673.22;4450390;32;33379;-61
2022/10/20 08:59:20;;;;;;;2.72;1.50;;;;;;;14.66;46.89;100685.06;4453696;32;34030;-61
2022/10/20 09:01:47;;;;;;;2.62;1.70;;;;;;;15.01;45.61;100670.69;4448619;32;33047;-60
2022/10/20 09:04:19;;;;;;;4.47;2.25;;;;;;;14.65;45.85;100666.31;4451577;32;35032;-62
2022/10/20 09:06:52;;;;;;;1.87;1.17;;;;;;;14.78;46.33;100666.25;4437613;32;32800;-61
2022/10/20 09:09:21;;;;;;;2.17;1.75;;;;;;;14.58;46.58;100679.41;4435583;32;32833;-63
2022/10/20 09:11:49;;;;;;;1.48;1.05;;;;;;;15.06;44.95;100668.50;4451916;32;34942;-60
2022/10/20 09:14:16;;;;;;;2.53;1.65;;;;;;;14.75;44.91;100667.31;4427393;32;218790;-62
2022/10/20 09:16:45;;;;;;;4.47;2.35;;;;;;;14.99;44.21;100677.16;4450499;32;33637;-62
2022/10/20 09:19:27;;;;;;;1.48;1.05;;;;;;;15.39;43.07;100664.09;4451305;32;33917;-63
2022/10/20 09:22:02;;;;;;;2.03;1.40;;;;;;;15.37;42.80;100652.53;4448603;32;33638;-61
2022/10/20 09:24:30;;;;;;;2.53;1.45;;;;;;;15.26;43.14;100666.06;4448762;32;34759;-65
2022/10/20 09:27:38;;;;;;;1.35;1.02;;;;;;;15.14;44.66;100665.19;4450628;32;33480;-61
2022/10/20 09:30:24;;;;;;;2.50;1.58;;;;;;;14.78;44.26;100672.47;4448825;32;33680;-61
2022/10/20 09:32:52;;;;;;;2.47;1.58;;;;;;;15.20;43.40;100671.94;4450519;32;34062;-60
2022/10/20 09:35:26;;;;;;;1.73;1.15;;;;;;;15.07;43.86;100680.13;4449579;32;33547;-61
2022/10/20 09:38:16;;;;;;;1.50;1.40;;;;;;;15.14;43.23;100678.66;4449772;32;33407;-61
2022/10/20 09:41:01;;;;;;;1.98;1.05;;;;;;;15.50;42.63;100669.44;4446974;32;35287;-62
2022/10/20 09:43:28;;;;;;;3.90;2.08;;;;;;;15.66;42.18;100668.22;4448472;32;35605;-61
2022/10/20 09:46:04;;;;;;;5.28;1.67;;;;;;;15.06;43.74;100673.88;4450990;32;32651;-62
2022/10/20 09:48:41;;;;;;;2.08;1.42;;;;;;;15.25;44.55;100672.41;4438623;32;32230;-62
2022/10/20 09:51:13;;;;;;;1.62;1.17;;;;;;;15.40;42.77;100681.97;4447837;32;33824;-62
2022/10/20 09:54:01;;;;;;;2.10;1.27;;;;;;;15.33;42.38;100678.91;4448462;32;33526;-62
2022/10/20 09:56:35;;;;;;;2.15;1.37;;;;;;;15.53;42.02;100673.75;4442762;32;33933;-62
2022/10/20 09:59:20;;;;;;;1.77;1.17;;;;;;;15.47;42.08;100668.84;4450435;32;33569;-64
2022/10/20 10:01:58;;;;;;;3.10;1.60;;;;;;;15.35;42.40;100668.88;4443576;32;32566;-62
2022/10/20 10:04:33;;;;;;;2.47;1.50;;;;;;;15.75;42.03;100667.50;4447545;32;34111;-62
2022/10/20 10:07:02;;;;;;;1.80;1.33;;;;;;;15.82;40.93;100666.88;4442430;32;32451;-63
2022/10/20 10:09:36;;;;;;;1.87;1.48;;;;;;;15.69;41.73;100670.69;4449287;32;32221;-63
2022/10/20 10:12:15;;;;;;;4.85;1.83;;;;;;;15.95;41.26;100680.22;4431118;32;34732;-62
2022/10/20 10:14:51;;;;;;;4.20;1.52;;;;;;;15.65;42.18;100669.22;4451322;32;34059;-63
2022/10/20 10:17:39;;;;;;;2.80;2.03;;;;;;;15.65;43.18;100661.97;4440973;32;32834;-62
2022/10/20 10:20:33;;;;;;;3.40;1.73;;;;;;;15.91;41.97;100667.09;4449094;32;33229;-64
2022/10/20 10:23:19;;;;;;;5.32;2.53;;;;;;;15.79;41.08;100663.56;4436195;32;33616;-62
2022/10/20 10:25:48;;;;;;;3.92;1.62;;;;;;;15.70;42.63;100662.50;4452616;32;35635;-61
2022/10/20 10:28:30;;;;;;;4.00;2.25;;;;;;;16.29;41.96;100653.09;4442999;32;33821;-63
2022/10/20 10:31:21;;;;;;;5.60;1.67;;;;;;;16.12;42.35;100651.84;4446613;32;34178;-64
2022/10/20 10:33:51;;;;;;;4.03;2.28;;;;;;;15.32;43.02;100649.38;4448066;32;33878;-59
2022/10/20 10:36:33;;;;;;;3.22;1.62;;;;;;;15.72;42.11;100640.75;4441552;32;33090;-62
2022/10/20 10:39:03;;;;;;;2.55;1.40;;;;;;;15.51;42.84;100643.34;4449697;32;34748;-62
2022/10/20 10:41:58;;;;;;;4.10;1.77;;;;;;;15.89;42.60;100640.25;4447706;32;33255;-62
2022/10/20 10:44:44;;;;;;;3.22;1.77;;;;;;;15.94;42.34;100638.00;4446586;32;33518;-62
2022/10/20 10:47:26;;;;;;;9.15;1.70;;;;;;;15.78;42.77;100640.25;4447952;32;35236;-61
2022/10/20 10:50:16;;;;;;;2.53;1.48;;;;;;;16.01;42.71;100632.94;4445285;32;34243;-61
2022/10/20 10:53:17;;;;;;;2.75;1.62;;;;;;;16.47;41.83;100624.53;4446617;32;34283;-61
2022/10/20 10:56:27;;;;;;;2.65;1.60;;;;;;;15.89;42.02;100624.06;4446040;32;34138;-62
2022/10/20 10:59:35;;;;;;;1.75;1.35;;;;;;;15.43;42.42;100619.69;4430252;32;33589;-61
2022/10/20 11:02:40;;;;;;;3.75;1.55;;;;;;;16.48;40.22;100609.19;4433764;32;33807;-61
2022/10/20 11:05:14;;;;;;;2.80;1.40;;;;;;;16.16;41.11;100604.66;4443336;32;32548;-59
2022/10/20 11:08:15;;;;;;;1.58;1.27;;;;;;;16.27;40.56;100601.03;4436491;32;32272;-61
2022/10/20 11:11:01;;;;;;;1.87;1.40;;;;;;;16.31;40.18;100594.41;4447643;32;32391;-59
2022/10/20 11:13:35;;;;;;;2.70;1.67;;;;;;;17.03;38.27;100590.03;4446331;32;32518;-63
2022/10/20 11:16:20;;;;;;;1.62;1.12;;;;;;;16.71;39.40;100583.72;4444689;32;33733;-61
2022/10/20 11:19:22;;;;;;;1.45;1.02;;;;;;;16.52;39.32;100594.41;4448460;32;32774;-62
2022/10/20 11:22:15;;;;;;;4.40;1.92;;;;;;;16.79;39.72;100574.97;4432058;32;32575;-62
2022/10/20 11:25:15;;;;;;;1.42;1.02;;;;;;;15.84;40.77;100574.97;4432335;32;32585;-61
2022/10/20 11:27:43;;;;;;;2.35;1.52;;;;;;;15.98;40.67;100584.59;4444929;32;32162;-62
2022/10/20 11:30:19;;;;;;;1.73;1.08;;;;;;;16.34;40.22;100569.84;4449745;32;33978;-62
2022/10/20 11:33:11;;;;;;;1.15;1.05;;;;;;;16.76;39.41;100577.94;4443209;32;34107;-62
2022/10/20 11:35:52;;;;;;;2.33;1.35;;;;;;;16.36;39.56;100567.00;4427570;32;32489;-62
2022/10/20 11:38:39;;;;;;;2.12;1.52;;;;;;;16.69;39.64;100565.91;4445910;32;34891;-62
2022/10/20 11:41:33;;;;;;;12.70;2.62;;;;;;;17.05;38.57;100561.00;4449727;32;33906;-62
2022/10/20 11:44:05;;;;;;;4.00;1.85;;;;;;;16.68;38.89;100562.34;4437999;32;35250;-63
2022/10/20 11:46:34;;;;;;;3.22;1.77;;;;;;;16.37;38.94;100564.19;4451157;32;34737;-62
2022/10/20 11:49:03;;;;;;;2.62;1.55;;;;;;;16.38;40.08;100556.94;4449896;32;33456;-61
2022/10/20 11:51:30;;;;;;;3.10;1.65;;;;;;;16.83;38.98;100551.22;4452787;32;35230;-63